createdAt,value
2018-04-16T00:00:16.289Z,100968.56
2018-04-16T00:02:43.903Z,100964.06
2018-04-16T00:05:11.530Z,100969.36
2018-04-16T00:07:40.032Z,100959.09
2018-04-16T00:10:07.648Z,100958.38
2018-04-16T00:12:35.261Z,100955.90
2018-04-16T00:15:03.142Z,100951.48
2018-04-16T00:17:30.774Z,100959.34
2018-04-16T00:19:58.435Z,100955.58
2018-04-16T00:22:26.249Z,100959.90
2018-04-16T00:24:53.922Z,100962.28
2018-04-16T00:27:21.549Z,100963.47
2018-04-16T00:29:49.317Z,100962.18
2018-04-16T00:32:22.708Z,100959.82
2018-04-16T00:34:55.963Z,100957.09
2018-04-16T00:37:29.179Z,100953.23
2018-04-16T00:40:02.429Z,100961.34
2018-04-16T00:42:35.678Z,100958.28
2018-04-16T00:45:08.719Z,100957.66
2018-04-16T00:47:41.958Z,100950.61
2018-04-16T00:50:15.134Z,100957.94
2018-04-16T00:52:48.359Z,100962.84
2018-04-16T00:55:21.690Z,100963.38
2018-04-16T00:57:54.899Z,100965.31
2018-04-16T01:00:27.946Z,100961.93
2018-04-16T01:03:01.030Z,100968.35
2018-04-16T01:05:34.345Z,100967.37
2018-04-16T01:08:07.670Z,100970.50
2018-04-16T01:10:40.759Z,100974.16
2018-04-16T01:13:14.122Z,100976.59
2018-04-16T01:15:47.449Z,100976.69
2018-04-16T01:18:20.735Z,100976.37
2018-04-16T01:20:53.959Z,100978.92
2018-04-16T01:23:27.169Z,100983.64
2018-04-16T01:26:00.454Z,100978.36
2018-04-16T01:28:34.831Z,100980.28
2018-04-16T01:31:08.051Z,100981.08
2018-04-16T01:33:41.544Z,100991.41
2018-04-16T01:36:14.739Z,100986.52
2018-04-16T01:38:48.218Z,100989.95
2018-04-16T01:41:21.283Z,100984.77
2018-04-16T01:43:54.899Z,100986.13
2018-04-16T01:46:28.508Z,100985.58
2018-04-16T01:49:01.693Z,100987.89
2018-04-16T01:51:34.877Z,100984.83
2018-04-16T01:54:08.139Z,100986.92
2018-04-16T01:56:41.412Z,100979.17
2018-04-16T01:59:14.756Z,100977.00
2018-04-16T02:01:48.173Z,100974.03
2018-04-16T02:04:21.291Z,100978.52
2018-04-16T02:06:54.559Z,100972.50
2018-04-16T02:09:27.869Z,100978.92
2018-04-16T02:12:01.094Z,100978.92
2018-04-16T02:14:34.356Z,100977.16
2018-04-16T02:17:07.914Z,100977.81
2018-04-16T02:19:41.091Z,100983.89
2018-04-16T02:22:14.521Z,100991.63
2018-04-16T02:24:47.685Z,100985.08
2018-04-16T02:27:20.845Z,100986.60
2018-04-16T02:29:54.145Z,100990.27
2018-04-16T02:32:27.225Z,100985.16
2018-04-16T02:35:00.451Z,100993.47
2018-04-16T02:37:33.641Z,100990.75
2018-04-16T02:40:07.251Z,100991.33
2018-04-16T02:42:40.821Z,100995.94
2018-04-16T02:45:14.463Z,100992.75
2018-04-16T02:47:47.736Z,100994.02
2018-04-16T02:50:21.093Z,100993.68
2018-04-16T02:52:54.356Z,100989.35
2018-04-16T02:55:27.506Z,100986.48
2018-04-16T02:58:00.602Z,100992.23
2018-04-16T03:00:33.821Z,100998.78
2018-04-16T03:03:07.089Z,101004.70
2018-04-16T03:05:40.610Z,101005.15
2018-04-16T03:08:13.884Z,100998.52
2018-04-16T03:10:47.217Z,100996.27
2018-04-16T03:13:20.213Z,100996.17
2018-04-16T03:15:53.766Z,101001.68
2018-04-16T03:18:27.390Z,100999.69
2018-04-16T03:21:00.449Z,100992.02
2018-04-16T03:23:33.617Z,101000.23
2018-04-16T03:26:06.784Z,101003.66
2018-04-16T03:28:39.899Z,101002.86
2018-04-16T03:31:12.909Z,101006.05
2018-04-16T03:33:46.042Z,101007.77
2018-04-16T03:36:19.412Z,101012.06
2018-04-16T03:38:52.543Z,101010.30
2018-04-16T03:41:25.833Z,101014.75
2018-04-16T03:47:00.458Z,101011.66
2018-04-16T03:49:33.574Z,101014.88
2018-04-16T03:52:10.087Z,101019.17
2018-04-16T03:54:37.989Z,101033.54
2018-04-16T03:57:05.674Z,101038.24
2018-04-16T03:59:33.277Z,101032.05
2018-04-16T04:02:00.953Z,101026.61
2018-04-16T04:04:28.644Z,101031.28
2018-04-16T04:06:56.314Z,101029.29
2018-04-16T04:09:24.275Z,101031.91
2018-04-16T04:11:52.030Z,101029.34
2018-04-16T04:14:20.024Z,101029.50
2018-04-16T04:16:47.625Z,101031.71
2018-04-16T04:19:15.252Z,101034.42
2018-04-16T04:21:43.023Z,101025.90
2018-04-16T04:24:22.402Z,101038.25
2018-04-16T04:27:02.090Z,101038.41
2018-04-16T04:29:41.751Z,101034.89
2018-04-16T04:32:09.366Z,101040.64
2018-04-16T04:34:37.350Z,101041.59
2018-04-16T04:37:04.983Z,101037.26
2018-04-16T04:39:33.111Z,101037.98
2018-04-16T04:42:00.699Z,101045.39
2018-04-16T04:44:28.612Z,101041.38
2018-04-16T04:46:56.760Z,101045.09
2018-04-16T04:49:24.431Z,101047.18
2018-04-16T04:51:52.425Z,101047.23
2018-04-16T04:54:20.131Z,101056.95
2018-04-16T04:56:47.723Z,101060.81
2018-04-16T04:59:15.387Z,101064.15
2018-04-16T05:01:43.008Z,101067.98
2018-04-16T05:04:10.627Z,101064.69
2018-04-16T05:06:38.703Z,101067.52
2018-04-16T05:09:06.415Z,101071.13
2018-04-16T05:11:34.100Z,101066.63
2018-04-16T05:14:01.713Z,101067.87
2018-04-16T05:16:29.662Z,101074.81
2018-04-16T05:18:57.328Z,101081.29
2018-04-16T05:21:24.925Z,101081.13
2018-04-16T05:23:52.657Z,101087.50
2018-04-16T05:26:20.262Z,101102.53
2018-04-16T05:28:47.893Z,101100.08
2018-04-16T05:31:15.869Z,101109.41
2018-04-16T05:33:43.472Z,101113.44
2018-04-16T05:36:11.164Z,101122.16
2018-04-16T05:38:39.023Z,101121.27
2018-04-16T05:41:06.904Z,101125.77
2018-04-16T05:43:34.627Z,101124.80
2018-04-16T05:46:02.854Z,101126.44
2018-04-16T05:48:30.454Z,101126.74
2018-04-16T05:50:58.139Z,101129.71
2018-04-16T05:53:26.052Z,101127.47
2018-04-16T05:55:54.118Z,101129.45
2018-04-16T05:58:21.960Z,101136.23
2018-04-16T06:00:49.649Z,101137.01
2018-04-16T06:03:17.254Z,101141.60
2018-04-16T06:05:44.962Z,101143.36
2018-04-16T06:08:12.927Z,101150.26
2018-04-16T06:10:40.999Z,101157.03
2018-04-16T06:13:08.607Z,101158.37
2018-04-16T06:15:36.380Z,101159.52
2018-04-16T06:18:04.290Z,101158.55
2018-04-16T06:20:32.138Z,101158.58
2018-04-16T06:22:59.779Z,101163.43
2018-04-16T06:25:27.441Z,101169.22
2018-04-16T06:27:55.148Z,101169.82
2018-04-16T06:30:23.001Z,101171.94
2018-04-16T06:32:50.629Z,101174.00
2018-04-16T06:35:18.527Z,101174.19
2018-04-16T06:37:46.151Z,101181.68
2018-04-16T06:40:13.968Z,101191.07
2018-04-16T06:42:41.832Z,101189.08
2018-04-16T06:45:09.425Z,101194.64
2018-04-16T06:47:37.047Z,101187.52
2018-04-16T06:50:04.742Z,101191.14
2018-04-16T06:52:32.513Z,101192.30
2018-04-16T06:55:00.533Z,101196.02
2018-04-16T06:57:28.143Z,101198.29
2018-04-16T06:59:55.776Z,101197.98
2018-04-16T07:02:23.506Z,101198.64
2018-04-16T07:04:51.195Z,101206.13
2018-04-16T07:07:18.962Z,101207.41
2018-04-16T07:09:46.609Z,101204.00
2018-04-16T07:12:14.280Z,101209.28
2018-04-16T07:14:41.984Z,101206.98
2018-04-16T07:17:09.760Z,101214.20
2018-04-16T07:19:37.788Z,101208.45
2018-04-16T07:22:05.381Z,101206.34
2018-04-16T07:24:33.131Z,101210.11
2018-04-16T07:27:00.850Z,101208.52
2018-04-16T07:29:28.603Z,101214.21
2018-04-16T07:31:56.195Z,101219.07
2018-04-16T07:34:23.847Z,101224.44
2018-04-16T07:36:51.569Z,101227.13
2018-04-16T07:39:19.211Z,101227.66
2018-04-16T07:41:46.873Z,101233.14
2018-04-16T07:44:14.554Z,101235.25
2018-04-16T07:46:42.300Z,101239.24
2018-04-16T07:49:09.894Z,101229.70
2018-04-16T07:51:37.827Z,101238.84
2018-04-16T07:54:05.779Z,101232.06
2018-04-16T07:56:33.820Z,101246.56
2018-04-16T07:59:01.452Z,101245.02
2018-04-16T08:01:29.146Z,101249.36
2018-04-16T08:03:57.185Z,101248.77
2018-04-16T08:06:24.787Z,101259.11
2018-04-16T08:08:52.431Z,101260.77
2018-04-16T08:11:20.157Z,101269.77
2018-04-16T08:13:47.770Z,101276.16
2018-04-16T08:16:15.378Z,101275.05
2018-04-16T08:18:42.972Z,101279.63
2018-04-16T08:21:10.581Z,101280.38
2018-04-16T08:23:38.303Z,101282.31
2018-04-16T08:26:05.895Z,101287.34
2018-04-16T08:28:33.786Z,101290.48
2018-04-16T08:31:01.516Z,101290.67
2018-04-16T08:33:29.111Z,101294.73
2018-04-16T08:35:56.799Z,101293.55
2018-04-16T08:38:24.444Z,101301.15
2018-04-16T08:40:52.111Z,101301.15
2018-04-16T08:43:19.724Z,101304.53
2018-04-16T08:45:47.667Z,101300.80
2018-04-16T08:48:15.329Z,101300.88
2018-04-16T08:50:43.148Z,101301.04
2018-04-16T08:53:10.809Z,101304.34
2018-04-16T08:55:38.643Z,101306.53
2018-04-16T08:58:06.333Z,101309.17
2018-04-16T09:00:33.974Z,101309.28
2018-04-16T09:03:01.592Z,101311.13
2018-04-16T09:05:29.911Z,101316.50
2018-04-16T09:07:57.496Z,101310.39
2018-04-16T09:10:25.165Z,101318.72
2018-04-16T09:12:52.844Z,101317.58
2018-04-16T09:15:20.444Z,101321.16
2018-04-16T09:17:48.115Z,101316.73
2018-04-16T09:20:15.768Z,101322.58
2018-04-16T09:22:43.457Z,101331.05
2018-04-16T09:25:11.341Z,101331.47
2018-04-16T09:27:39.433Z,101331.37
2018-04-16T09:30:07.241Z,101329.26
2018-04-16T09:32:34.905Z,101333.15
2018-04-16T09:35:02.518Z,101338.03
2018-04-16T09:37:30.193Z,101342.98
2018-04-16T09:39:57.803Z,101341.41
2018-04-16T09:42:25.796Z,101338.17
2018-04-16T09:44:53.765Z,101336.80
2018-04-16T09:47:21.573Z,101343.45
2018-04-16T09:49:49.262Z,101354.05
2018-04-16T09:52:17.006Z,101356.45
2018-04-16T09:54:44.679Z,101344.07
2018-04-16T09:57:12.337Z,101344.22
2018-04-16T09:59:39.983Z,101351.58
2018-04-16T10:02:13.032Z,101353.87
2018-04-16T10:04:40.798Z,101353.08
2018-04-16T10:07:08.373Z,101354.16
2018-04-16T10:09:35.952Z,101360.91
2018-04-16T10:12:03.907Z,101361.28
2018-04-16T10:14:31.856Z,101349.91
2018-04-16T10:16:59.588Z,101359.20
2018-04-16T10:19:27.594Z,101360.34
2018-04-16T10:21:55.284Z,101351.22
2018-04-16T10:24:22.944Z,101350.58
2018-04-16T10:26:50.543Z,101354.64
2018-04-16T10:29:18.208Z,101356.63
2018-04-16T10:31:45.825Z,101355.95
2018-04-16T10:34:13.526Z,101366.20
2018-04-16T10:36:41.220Z,101356.94
2018-04-16T10:39:08.876Z,101361.57
2018-04-16T10:41:36.466Z,101366.40
2018-04-16T10:44:04.103Z,101362.16
2018-04-16T10:46:31.691Z,101367.11
2018-04-16T10:48:59.655Z,101367.03
2018-04-16T10:51:27.384Z,101362.19
2018-04-16T10:53:54.983Z,101366.10
2018-04-16T10:56:22.943Z,101362.19
2018-04-16T10:58:50.560Z,101370.05
2018-04-16T11:01:18.130Z,101376.87
2018-04-16T11:03:45.880Z,101380.30
2018-04-16T11:06:13.549Z,101383.27
2018-04-16T11:08:41.301Z,101382.14
2018-04-16T11:11:09.003Z,101380.77
2018-04-16T11:13:36.609Z,101374.45
2018-04-16T11:16:04.241Z,101372.68
2018-04-16T11:18:31.874Z,101373.86
2018-04-16T11:20:59.881Z,101374.89
2018-04-16T11:23:27.618Z,101389.89
2018-04-16T11:25:55.273Z,101383.70
2018-04-16T11:28:23.062Z,101383.31
2018-04-16T11:30:50.857Z,101384.48
2018-04-16T11:33:18.509Z,101390.55
2018-04-16T11:35:46.121Z,101390.92
2018-04-16T11:38:13.791Z,101392.59
2018-04-16T11:40:41.569Z,101390.91
2018-04-16T11:43:09.961Z,101392.82
2018-04-16T11:45:37.813Z,101404.31
2018-04-16T11:48:05.642Z,101412.25
2018-04-16T11:50:33.329Z,101404.94
2018-04-16T11:53:01.030Z,101402.67
2018-04-16T11:55:29.093Z,101393.02
2018-04-16T11:57:56.948Z,101401.97
2018-04-16T12:00:24.568Z,101401.14
2018-04-16T12:02:52.309Z,101410.08
2018-04-16T12:05:20.248Z,101415.28
2018-04-16T12:07:48.330Z,101417.47
2018-04-16T12:10:15.945Z,101418.59
2018-04-16T12:12:43.563Z,101419.17
2018-04-16T12:15:11.543Z,101421.77
2018-04-16T12:17:39.221Z,101419.25
2018-04-16T12:20:07.144Z,101420.49
2018-04-16T12:22:34.784Z,101412.57
2018-04-16T12:25:02.491Z,101411.73
2018-04-16T12:27:30.434Z,101421.70
2018-04-16T12:29:58.182Z,101425.90
2018-04-16T12:32:25.851Z,101424.69
2018-04-16T12:34:53.541Z,101426.43
2018-04-16T12:37:21.221Z,101426.83
2018-04-16T12:39:49.298Z,101426.80
2018-04-16T12:42:17.244Z,101431.40
2018-04-16T12:44:44.848Z,101424.98
2018-04-16T12:47:12.767Z,101441.34
2018-04-16T12:49:40.437Z,101436.22
2018-04-16T12:52:08.189Z,101441.23
2018-04-16T12:54:35.777Z,101448.23
2018-04-16T12:57:03.391Z,101441.20
2018-04-16T12:59:31.070Z,101445.36
2018-04-16T13:01:58.679Z,101448.72
2018-04-16T13:04:26.277Z,101446.84
2018-04-16T13:06:54.085Z,101443.73
2018-04-16T13:09:21.700Z,101444.10
2018-04-16T13:11:49.597Z,101444.55
2018-04-16T13:14:17.444Z,101442.16
2018-04-16T13:16:45.041Z,101445.46
2018-04-16T13:19:12.668Z,101453.68
2018-04-16T13:21:40.538Z,101456.67
2018-04-16T13:24:08.748Z,101451.43
2018-04-16T13:26:36.323Z,101458.82
2018-04-16T13:29:04.042Z,101458.80
2018-04-16T13:31:31.726Z,101461.19
2018-04-16T13:33:59.356Z,101463.70
2018-04-16T13:36:26.981Z,101468.22
2018-04-16T13:38:54.631Z,101466.71
2018-04-16T13:41:22.249Z,101465.05
2018-04-16T13:43:50.208Z,101473.75
2018-04-16T13:46:17.800Z,101478.25
2018-04-16T13:48:45.452Z,101479.66
2018-04-16T13:51:13.416Z,101473.94
2018-04-16T13:53:41.016Z,101468.02
2018-04-16T13:56:09.052Z,101470.63
2018-04-16T13:58:37.017Z,101466.91
2018-04-16T14:01:04.612Z,101474.44
2018-04-16T14:03:32.264Z,101478.64
2018-04-16T14:05:59.917Z,101482.88
2018-04-16T14:08:27.582Z,101491.14
2018-04-16T14:10:55.304Z,101482.56
2018-04-16T14:13:22.920Z,101483.66
2018-04-16T14:15:50.853Z,101479.41
2018-04-16T14:18:18.427Z,101478.28
2018-04-16T14:20:46.112Z,101485.09
2018-04-16T14:23:13.752Z,101488.47
2018-04-16T14:25:41.523Z,101482.31
2018-04-16T14:28:09.663Z,101494.41
2018-04-16T14:30:37.366Z,101492.55
2018-04-16T14:33:05.335Z,101500.63
2018-04-16T14:35:33.125Z,101493.19
2018-04-16T14:38:00.724Z,101505.08
2018-04-16T14:40:28.379Z,101503.97
2018-04-16T14:42:56.084Z,101503.24
2018-04-16T14:45:23.777Z,101508.19
2018-04-16T14:47:51.416Z,101508.75
2018-04-16T14:50:19.064Z,101511.61
2018-04-16T14:52:46.728Z,101514.66
2018-04-16T14:55:14.380Z,101517.95
2018-04-16T14:57:42.001Z,101515.77
2018-04-16T15:00:09.818Z,101518.52
2018-04-16T15:02:37.412Z,101512.82
2018-04-16T15:05:05.107Z,101521.75
2018-04-16T15:07:32.924Z,101528.02
2018-04-16T15:10:00.635Z,101527.63
2018-04-16T15:12:28.225Z,101534.03
2018-04-16T15:14:56.294Z,101533.27
2018-04-16T15:17:23.903Z,101535.20
2018-04-16T15:19:51.556Z,101533.44
2018-04-16T15:22:19.176Z,101536.59
2018-04-16T15:24:47.031Z,101535.41
2018-04-16T15:27:14.687Z,101544.27
2018-04-16T15:29:42.531Z,101546.58
2018-04-16T15:32:10.216Z,101550.70
2018-04-16T15:34:37.828Z,101550.59
2018-04-16T15:37:05.439Z,101545.75
2018-04-16T15:39:33.244Z,101546.96
2018-04-16T15:42:01.055Z,101550.16
2018-04-16T15:44:28.786Z,101550.45
2018-04-16T15:46:56.421Z,101555.11
2018-04-16T15:49:24.078Z,101553.73
2018-04-16T15:51:51.770Z,101552.50
2018-04-16T15:54:19.705Z,101554.54
2018-04-16T15:56:47.680Z,101555.20
2018-04-16T15:59:15.666Z,101553.47
2018-04-16T16:01:43.527Z,101559.50
2018-04-16T16:04:11.222Z,101558.75
2018-04-16T16:06:38.895Z,101557.17
2018-04-16T16:09:06.625Z,101558.31
2018-04-16T16:11:34.413Z,101558.48
2018-04-16T16:14:02.123Z,101565.70
2018-04-16T16:16:29.731Z,101566.41
2018-04-16T16:18:57.440Z,101566.45
2018-04-16T16:21:25.105Z,101564.42
2018-04-16T16:23:52.694Z,101570.95
2018-04-16T16:26:20.568Z,101572.37
2018-04-16T16:28:48.167Z,101583.05
2018-04-16T16:31:15.931Z,101572.55
2018-04-16T16:33:43.647Z,101578.49
2018-04-16T16:36:11.269Z,101583.73
2018-04-16T16:38:38.929Z,101594.09
2018-04-16T16:41:06.633Z,101594.65
2018-04-16T16:43:34.301Z,101595.45
2018-04-16T16:46:01.961Z,101597.44
2018-04-16T16:48:29.565Z,101610.15
2018-04-16T16:50:57.597Z,101607.23
2018-04-16T16:53:25.219Z,101605.83
2018-04-16T16:55:52.800Z,101614.81
2018-04-16T16:58:20.658Z,101623.95
2018-04-16T17:00:48.322Z,101626.11
2018-04-16T17:03:15.909Z,101628.14
2018-04-16T17:05:43.604Z,101630.11
2018-04-16T17:08:11.373Z,101628.43
2018-04-16T17:10:39.117Z,101637.02
2018-04-16T17:13:07.069Z,101638.20
2018-04-16T17:15:34.772Z,101635.81
2018-04-16T17:18:02.484Z,101643.95
2018-04-16T17:20:30.557Z,101650.74
2018-04-16T17:22:58.269Z,101654.11
2018-04-16T17:25:25.881Z,101653.62
2018-04-16T17:27:53.564Z,101658.80
2018-04-16T17:30:21.507Z,101658.01
2018-04-16T17:32:49.386Z,101661.81
2018-04-16T17:35:16.978Z,101666.97
2018-04-16T17:37:44.559Z,101668.52
2018-04-16T17:40:12.175Z,101672.39
2018-04-16T17:42:39.778Z,101677.76
2018-04-16T17:45:07.512Z,101677.36
2018-04-16T17:47:35.111Z,101688.44
2018-04-16T17:50:02.835Z,101688.82
2018-04-16T17:52:30.526Z,101701.09
2018-04-16T17:54:58.210Z,101701.18
2018-04-16T17:57:25.888Z,101702.26
2018-04-16T17:59:53.620Z,101706.20
2018-04-16T18:02:21.212Z,101709.83
2018-04-16T18:04:48.806Z,101709.69
2018-04-16T18:07:16.425Z,101724.72
2018-04-16T18:09:44.024Z,101732.77
2018-04-16T18:12:12.057Z,101735.08
2018-04-16T18:14:39.961Z,101733.21
2018-04-16T18:17:07.539Z,101734.27
2018-04-16T18:19:35.307Z,101746.41
2018-04-16T18:22:03.052Z,101740.55
2018-04-16T18:24:30.743Z,101749.38
2018-04-16T18:26:58.441Z,101746.30
2018-04-16T18:29:26.542Z,101761.09
2018-04-16T18:31:54.127Z,101756.23
2018-04-16T18:34:21.792Z,101767.88
2018-04-16T18:36:49.625Z,101770.21
2018-04-16T18:39:17.535Z,101771.72
2018-04-16T18:41:45.171Z,101777.73
2018-04-16T18:44:12.778Z,101785.41
2018-04-16T18:46:40.497Z,101787.06
2018-04-16T18:49:08.108Z,101789.87
2018-04-16T18:51:36.005Z,101794.00
2018-04-16T18:54:03.690Z,101804.23
2018-04-16T18:56:31.355Z,101808.30
2018-04-16T18:58:59.033Z,101805.25
2018-04-16T19:01:26.717Z,101819.44
2018-04-16T19:03:54.380Z,101826.70
2018-04-16T19:06:22.063Z,101831.97
2018-04-16T19:08:49.904Z,101831.68
2018-04-16T19:11:17.626Z,101837.77
2018-04-16T19:13:45.272Z,101839.19
2018-04-16T19:16:12.891Z,101844.61
2018-04-16T19:18:40.718Z,101848.59
2018-04-16T19:21:13.907Z,101848.97
2018-04-16T19:23:41.591Z,101856.13
2018-04-16T19:26:09.248Z,101856.34
2018-04-16T19:28:36.961Z,101862.27
2018-04-16T19:31:04.849Z,101869.20
2018-04-16T19:33:38.031Z,101880.38
2018-04-16T19:36:05.632Z,101871.24
2018-04-16T19:38:33.320Z,101879.95
2018-04-16T19:41:01.248Z,101887.13
2018-04-16T19:43:28.915Z,101886.64
2018-04-16T19:45:57.638Z,101885.38
2018-04-16T19:48:25.362Z,101887.90
2018-04-16T19:50:53.180Z,101893.71
2018-04-16T19:53:20.760Z,101896.84
2018-04-16T19:55:54.400Z,101896.94
2018-04-16T19:58:23.143Z,101899.50
2018-04-16T20:00:50.773Z,101905.89
2018-04-16T20:06:30.908Z,101902.91
2018-04-16T20:08:59.080Z,101917.31
2018-04-16T20:11:26.687Z,101915.13
2018-04-16T20:13:54.917Z,101917.26
2018-04-16T20:16:23.245Z,101911.74
2018-04-16T20:18:50.868Z,101919.16
2018-04-16T20:21:18.528Z,101922.77
2018-04-16T20:23:46.335Z,101919.59
2018-04-16T20:26:14.088Z,101925.13
2018-04-16T20:28:41.910Z,101925.05
2018-04-16T20:31:09.655Z,101929.63
2018-04-16T20:33:37.291Z,101926.49
2018-04-16T20:36:05.113Z,101933.11
2018-04-16T20:38:32.853Z,101933.63
2018-04-16T20:41:00.534Z,101931.55
2018-04-16T20:43:28.123Z,101941.16
2018-04-16T20:45:56.084Z,101928.19
2018-04-16T20:48:23.666Z,101937.28
2018-04-16T20:50:51.263Z,101936.02
2018-04-16T20:53:19.042Z,101933.94
2018-04-16T20:55:46.632Z,101928.97
2018-04-16T20:58:14.781Z,101932.62
2018-04-16T21:00:42.401Z,101931.20
2018-04-16T21:03:10.000Z,101931.83
2018-04-16T21:05:37.764Z,101930.68
2018-04-16T21:08:05.417Z,101932.92
2018-04-16T21:10:33.098Z,101935.47
2018-04-16T21:13:00.908Z,101931.97
2018-04-16T21:15:28.599Z,101935.16
2018-04-16T21:17:56.608Z,101935.75
2018-04-16T21:20:24.558Z,101936.25
2018-04-16T21:22:52.637Z,101933.58
2018-04-16T21:25:20.271Z,101943.14
2018-04-16T21:27:48.036Z,101949.58
2018-04-16T21:30:15.696Z,101951.69
2018-04-16T21:32:43.590Z,101950.52
2018-04-16T21:35:11.207Z,101953.55
2018-04-16T21:37:38.877Z,101957.14
2018-04-16T21:40:06.520Z,101954.47
2018-04-16T21:42:34.185Z,101962.25
2018-04-16T21:45:01.766Z,101970.72
2018-04-16T21:47:29.407Z,101966.42
2018-04-16T21:49:57.193Z,101962.96
2018-04-16T21:52:24.947Z,101979.02
2018-04-16T21:54:52.613Z,101975.11
2018-04-16T21:57:20.213Z,101978.14
2018-04-16T21:59:47.888Z,101978.98
2018-04-16T22:02:15.577Z,101983.23
2018-04-16T22:04:43.225Z,101984.63
2018-04-16T22:07:10.857Z,101986.16
2018-04-16T22:09:38.547Z,101995.95
2018-04-16T22:12:06.489Z,101990.44
2018-04-16T22:14:34.583Z,101986.78
2018-04-16T22:17:02.260Z,101990.63
2018-04-16T22:19:30.362Z,101995.66
2018-04-16T22:21:58.234Z,101997.31
2018-04-16T22:24:25.888Z,102002.09
2018-04-16T22:26:53.570Z,102008.88
2018-04-16T22:29:21.460Z,102003.48
2018-04-16T22:31:49.275Z,102009.61
2018-04-16T22:34:17.059Z,102017.05
2018-04-16T22:36:44.634Z,102022.48
2018-04-16T22:39:12.258Z,102018.19
2018-04-16T22:41:39.855Z,102023.75
2018-04-16T22:44:07.541Z,102022.55
2018-04-16T22:46:35.393Z,102023.35
2018-04-16T22:49:03.271Z,102021.59
2018-04-16T22:51:30.922Z,102031.22
2018-04-16T22:53:58.914Z,102034.07
2018-04-16T22:56:26.880Z,102036.13
2018-04-16T22:58:54.503Z,102040.61
2018-04-16T23:01:22.223Z,102038.56
2018-04-16T23:03:49.868Z,102039.95
2018-04-16T23:06:17.779Z,102044.82
2018-04-16T23:08:45.549Z,102042.67
2018-04-16T23:11:13.171Z,102050.93
2018-04-16T23:13:41.144Z,102052.42
2018-04-16T23:16:08.968Z,102049.44
2018-04-16T23:18:36.652Z,102045.89
2018-04-16T23:21:04.464Z,102047.52
2018-04-16T23:23:32.128Z,102047.80
2018-04-16T23:26:00.163Z,102055.92
2018-04-16T23:28:28.461Z,102060.92
2018-04-16T23:30:56.525Z,102062.81
2018-04-16T23:33:24.556Z,102072.01
2018-04-16T23:35:52.582Z,102068.36
2018-04-16T23:38:20.669Z,102076.05
2018-04-16T23:40:48.811Z,102074.97
2018-04-16T23:43:16.421Z,102080.52
2018-04-16T23:45:44.449Z,102087.41
2018-04-16T23:48:12.039Z,102072.80
2018-04-16T23:50:40.070Z,102082.81
2018-04-16T23:53:07.726Z,102078.46
2018-04-16T23:55:35.522Z,102082.79
2018-04-16T23:58:03.093Z,102074.67
